Eagle Valley, Nevada
Current Conditions -  °F | °C
As of 2:53 PM on Thursday 23 Oct 2014 (Local Time) from KELY Reporting Station
Clear Clear  
Wind Chill: 69°   Ceiling: Unl
Heat Index: 69°   Visibility: 10mi
Dew Point: 20°   Wind: 15mph
Humidity: 15%   Direction: 180°S
Pressure: 30.14"   Gusts: NA
Location:  38.2635°N, 114.484°W
Report Text: KELY 232153Z AUTO 18013KT 10SM CLR 21/M07 A3014 RMK AO2 SLP135 T02061067
Loading
Personal Weather Stations






























Interactive Weather Map
Tropical Storm Tracking
New forecast layout! Learn more

10-Day Weather Forecast

Advertisements
Track Severe Weather on mobile